createdAt,value
2022-12-04T06:11:39.489Z,11.88
2022-12-04T06:12:42.533Z,13.50
2022-12-04T06:17:42.206Z,13.57
2022-12-04T06:18:51.052Z,15.05
2022-12-04T06:19:59.607Z,14.98
2022-12-04T06:22:12.585Z,15.05
2022-12-04T06:23:20.950Z,16.02
2022-12-04T06:24:25.368Z,15.75
2022-12-04T06:25:56.380Z,15.98
2022-12-04T06:28:52.995Z,14.57
2022-12-04T06:30:52.720Z,16.50
2022-12-04T06:31:59.585Z,14.68
2022-12-04T06:33:08.102Z,14.50
2022-12-04T06:34:26.470Z,16.33
2022-12-04T06:35:29.080Z,17.38
2022-12-04T06:36:33.832Z,17.02
2022-12-04T06:37:36.614Z,18.60
2022-12-04T06:38:46.730Z,15.57
2022-12-04T06:39:49.494Z,16.95
2022-12-04T06:40:51.795Z,17.80
2022-12-04T06:41:56.460Z,17.33
2022-12-04T06:42:59.488Z,17.08
2022-12-04T06:44:01.777Z,16.52
2022-12-04T06:45:06.586Z,15.98
2022-12-04T06:46:13.987Z,15.70
2022-12-04T06:47:19.381Z,18.30
2022-12-04T06:48:22.098Z,18.27
2022-12-04T06:49:25.810Z,16.52
2022-12-04T06:50:30.807Z,16.75
2022-12-04T06:51:36.826Z,14.75
2022-12-04T06:52:45.397Z,15.48
2022-12-04T06:54:06.252Z,14.63
2022-12-04T06:55:14.157Z,15.15
2022-12-04T06:59:10.152Z,14.65
2022-12-04T07:01:14.107Z,12.68
2022-12-04T07:06:24.534Z,12.60
2022-12-04T07:25:10.029Z,13.73
2022-12-04T07:26:14.213Z,14.48
2022-12-04T07:27:16.921Z,14.80
2022-12-04T07:28:18.993Z,13.90
2022-12-04T07:29:21.246Z,13.63
2022-12-04T07:30:23.794Z,14.93
2022-12-04T07:31:29.945Z,15.18
2022-12-04T07:32:35.674Z,14.18
2022-12-04T07:33:38.860Z,13.40
2022-12-04T07:34:44.204Z,15.40
2022-12-04T07:35:54.691Z,15.27
2022-12-04T07:36:57.217Z,16.95
2022-12-04T07:38:01.001Z,14.63
2022-12-04T07:39:04.153Z,14.25
2022-12-04T07:40:08.406Z,15.23
2022-12-04T07:41:14.249Z,14.48
2022-12-04T07:42:24.300Z,13.73
2022-12-04T07:43:29.940Z,14.68
2022-12-04T07:44:33.288Z,13.35
2022-12-04T07:45:44.971Z,14.30
2022-12-04T07:47:02.522Z,14.98
2022-12-04T07:48:13.756Z,14.50
2022-12-04T07:49:32.878Z,14.27
2022-12-04T07:50:40.003Z,13.80
2022-12-04T07:51:44.158Z,13.93
2022-12-04T07:52:47.290Z,13.35
2022-12-04T07:53:51.588Z,13.45
2022-12-04T07:54:59.922Z,13.43
2022-12-04T07:56:07.702Z,13.10
2022-12-04T07:57:11.523Z,12.40
2022-12-04T07:58:15.172Z,11.65
2022-12-04T07:59:19.186Z,11.75
2022-12-04T08:00:22.874Z,12.50
2022-12-04T08:01:26.555Z,12.52
2022-12-04T08:02:29.980Z,10.95
2022-12-04T08:03:35.081Z,12.57
2022-12-04T08:04:38.688Z,12.23
2022-12-04T08:05:42.823Z,12.13
2022-12-04T08:07:14.188Z,12.07
2022-12-04T08:08:20.738Z,11.23
2022-12-04T08:09:25.082Z,13.25
2022-12-04T08:10:27.972Z,11.93
2022-12-04T08:11:32.278Z,11.10
2022-12-04T08:13:07.029Z,11.63
2022-12-04T08:14:12.293Z,11.43
2022-12-04T08:15:17.444Z,12.10
2022-12-04T08:16:22.138Z,11.63
2022-12-04T08:17:26.617Z,10.85
2022-12-04T08:18:29.397Z,12.15
2022-12-04T08:19:33.009Z,11.45
2022-12-04T08:20:35.421Z,12.48
2022-12-04T08:21:38.415Z,12.63
2022-12-04T08:22:42.196Z,13.43
2022-12-04T08:23:48.648Z,12.00
2022-12-04T08:24:53.183Z,11.77
2022-12-04T08:26:02.031Z,11.07
2022-12-04T08:27:09.656Z,11.52
2022-12-04T08:28:13.865Z,13.15
2022-12-04T08:29:18.174Z,12.85
2022-12-04T08:30:21.903Z,12.65
2022-12-04T08:31:30.358Z,12.75
2022-12-04T08:32:34.804Z,12.98
2022-12-04T08:33:44.072Z,12.82
2022-12-04T08:34:55.540Z,12.85
2022-12-04T08:36:00.069Z,12.95
2022-12-04T08:37:04.370Z,12.27
2022-12-04T08:38:09.313Z,12.90
2022-12-04T08:39:13.481Z,13.38
2022-12-04T08:40:18.182Z,12.57
2022-12-04T08:41:26.643Z,12.40
2022-12-04T08:47:03.944Z,10.93
2022-12-04T08:48:13.394Z,10.50
2022-12-04T08:49:19.922Z,11.10
2022-12-04T08:50:23.669Z,12.57
2022-12-04T08:51:36.187Z,12.02
2022-12-04T08:52:40.864Z,10.88
2022-12-04T08:56:08.022Z,10.60
2022-12-04T08:57:16.442Z,11.20
2022-12-04T08:58:23.150Z,12.07
2022-12-04T08:59:28.987Z,11.73
2022-12-04T09:00:34.938Z,12.07
2022-12-04T09:03:48.602Z,11.38
2022-12-04T09:06:38.646Z,10.93
2022-12-04T09:07:48.556Z,11.48
2022-12-04T09:09:03.808Z,10.88
2022-12-04T09:10:56.892Z,11.27
2022-12-04T09:12:03.734Z,11.77
2022-12-04T09:13:12.044Z,11.77
2022-12-04T09:14:26.401Z,11.80
2022-12-04T09:15:31.101Z,10.90
2022-12-04T09:16:35.367Z,11.95
2022-12-04T09:17:38.210Z,12.35
2022-12-04T09:18:41.200Z,12.10
2022-12-04T09:19:44.068Z,12.38
2022-12-04T09:20:46.631Z,12.00
2022-12-04T09:21:49.664Z,13.82
2022-12-04T09:23:04.104Z,12.13
2022-12-04T09:24:13.701Z,12.43
2022-12-04T09:25:19.652Z,10.82
2022-12-04T09:26:30.372Z,12.25
2022-12-04T09:27:37.791Z,11.30
2022-12-04T09:28:41.877Z,11.70
2022-12-04T09:29:45.046Z,11.77
2022-12-04T09:30:58.577Z,13.10
2022-12-04T09:32:04.955Z,11.63
2022-12-04T09:33:07.418Z,12.25
2022-12-04T09:34:11.106Z,11.68
2022-12-04T09:35:13.363Z,11.13
2022-12-04T09:36:20.450Z,13.00
2022-12-04T09:37:22.921Z,11.52
2022-12-04T09:38:30.136Z,11.40
2022-12-04T09:39:32.510Z,11.48
2022-12-04T09:40:46.410Z,11.88
2022-12-04T09:42:08.669Z,11.77
2022-12-04T09:43:19.925Z,11.85
2022-12-04T09:44:28.802Z,11.48
2022-12-04T09:45:40.722Z,10.65
2022-12-04T09:46:59.149Z,11.38
2022-12-04T09:48:02.875Z,11.77
2022-12-04T09:49:41.723Z,11.07
2022-12-04T09:50:47.015Z,10.77
2022-12-04T09:51:54.631Z,10.85
2022-12-04T09:53:02.626Z,11.82
2022-12-04T09:54:18.696Z,11.43
2022-12-04T09:55:29.288Z,11.77
2022-12-04T09:56:34.565Z,12.60
2022-12-04T09:57:46.764Z,11.30
2022-12-04T09:58:54.919Z,12.23
2022-12-04T09:59:58.321Z,11.53
2022-12-04T10:01:03.739Z,11.80
2022-12-04T10:02:23.626Z,12.00
2022-12-04T10:03:33.224Z,12.65
2022-12-04T10:07:25.547Z,11.85
2022-12-04T10:09:06.783Z,12.23
2022-12-04T10:10:36.965Z,11.73
2022-12-04T10:11:46.901Z,11.27
2022-12-04T10:13:01.891Z,11.23
2022-12-04T10:14:29.252Z,11.20
2022-12-04T10:16:18.035Z,11.00
2022-12-04T10:17:57.372Z,11.77
2022-12-04T10:19:20.943Z,11.15
2022-12-04T10:20:52.175Z,10.60
2022-12-04T10:22:37.339Z,10.65
2022-12-04T10:24:21.010Z,9.90
2022-12-04T10:25:27.984Z,9.35
2022-12-04T10:26:39.423Z,11.43
2022-12-04T10:28:07.580Z,10.05
2022-12-04T10:29:22.811Z,10.70
2022-12-04T10:32:24.116Z,10.80
2022-12-04T10:34:23.298Z,11.18
2022-12-04T10:35:44.571Z,11.13
2022-12-04T10:36:52.775Z,10.73
2022-12-04T10:38:05.878Z,11.68
2022-12-04T10:39:34.652Z,12.05
2022-12-04T10:40:51.906Z,10.65
2022-12-04T10:42:20.935Z,10.73
2022-12-04T10:43:38.571Z,10.50
2022-12-04T10:44:43.550Z,11.20
2022-12-04T10:45:56.617Z,10.88
2022-12-04T10:47:16.450Z,9.55
2022-12-04T10:48:34.687Z,9.85
2022-12-04T10:49:42.203Z,9.80
2022-12-04T10:50:51.451Z,10.82
2022-12-04T10:51:54.805Z,10.25
2022-12-04T10:52:57.266Z,10.18
2022-12-04T10:54:00.326Z,11.15
2022-12-04T10:55:03.693Z,11.15
2022-12-04T10:56:14.159Z,10.77
2022-12-04T10:57:17.163Z,9.98
2022-12-04T10:58:21.959Z,10.30
2022-12-04T10:59:26.393Z,11.05
2022-12-04T11:00:37.414Z,10.35
2022-12-04T11:01:41.121Z,10.32
2022-12-04T11:02:45.270Z,10.85
2022-12-04T11:04:00.053Z,10.63
2022-12-04T11:05:26.374Z,10.82
2022-12-04T11:06:29.839Z,11.63
2022-12-04T11:07:43.648Z,10.35
2022-12-04T11:08:51.107Z,11.55
2022-12-04T11:10:34.228Z,10.45
2022-12-04T11:11:36.433Z,9.88
2022-12-04T11:12:40.874Z,10.52
2022-12-04T11:13:45.233Z,11.65
2022-12-04T11:14:51.014Z,11.02
2022-12-04T11:15:57.829Z,13.18
2022-12-04T11:17:06.628Z,11.98
2022-12-04T11:18:31.499Z,12.38
2022-12-04T11:19:38.828Z,9.68
2022-12-04T11:20:49.596Z,9.63
2022-12-04T11:22:02.068Z,10.80
2022-12-04T11:23:05.403Z,9.20
2022-12-04T11:24:23.594Z,9.35
2022-12-04T11:25:35.760Z,10.57
2022-12-04T11:27:54.518Z,9.90
2022-12-04T11:29:01.662Z,9.75
2022-12-04T11:30:14.074Z,9.10
2022-12-04T11:31:21.572Z,9.02
2022-12-04T11:32:27.728Z,9.63
2022-12-04T11:33:40.350Z,8.75
2022-12-04T11:34:45.429Z,8.75
2022-12-04T11:36:03.296Z,8.95
2022-12-04T11:37:07.274Z,9.48
2022-12-04T11:38:17.420Z,9.25
2022-12-04T11:39:22.599Z,8.88
2022-12-04T11:40:29.425Z,8.63
2022-12-04T11:41:32.644Z,8.95
2022-12-04T11:42:34.739Z,8.40
2022-12-04T11:43:38.188Z,8.77
2022-12-04T11:44:49.157Z,9.15
2022-12-04T11:46:07.597Z,8.98
2022-12-04T11:47:18.353Z,9.07
2022-12-04T11:48:21.360Z,7.28
2022-12-04T11:49:26.138Z,7.72
2022-12-04T11:50:47.985Z,7.93
2022-12-04T11:52:29.879Z,7.68
2022-12-04T11:53:55.192Z,8.93
2022-12-04T11:55:04.905Z,8.35
2022-12-04T11:58:00.342Z,7.88
2022-12-04T11:59:40.856Z,7.53
2022-12-04T12:00:59.030Z,9.05
2022-12-04T12:02:35.409Z,8.25
2022-12-04T12:04:03.391Z,8.20
2022-12-04T12:05:42.865Z,7.55
2022-12-04T12:07:01.606Z,7.95
2022-12-04T12:08:19.559Z,8.32
2022-12-04T12:09:34.659Z,8.07
2022-12-04T12:10:48.317Z,8.15
2022-12-04T12:12:06.504Z,7.72
2022-12-04T12:13:28.298Z,8.35
2022-12-04T12:14:45.980Z,8.60
2022-12-04T12:16:30.538Z,9.05
2022-12-04T12:17:38.441Z,8.02
2022-12-04T12:19:22.766Z,7.35
2022-12-04T12:20:36.175Z,8.50
2022-12-04T12:21:57.469Z,8.20
2022-12-04T12:23:11.833Z,8.45
2022-12-04T12:24:25.278Z,8.20
2022-12-04T12:25:38.844Z,7.72
2022-12-04T12:27:05.157Z,8.82
2022-12-04T12:28:45.753Z,8.70
2022-12-04T12:30:10.436Z,7.50
2022-12-04T12:31:26.634Z,7.45
2022-12-04T12:32:48.126Z,8.68
2022-12-04T12:34:08.716Z,7.90
2022-12-04T12:35:46.061Z,8.35
2022-12-04T12:36:57.788Z,8.25
2022-12-04T12:38:22.753Z,8.00
2022-12-04T12:39:36.078Z,8.93
2022-12-04T12:40:46.172Z,7.05
2022-12-04T12:41:58.338Z,7.60
2022-12-04T12:43:08.572Z,7.93
2022-12-04T12:44:23.961Z,7.93
2022-12-04T12:45:52.616Z,7.38
2022-12-04T12:47:06.026Z,7.78
2022-12-04T12:48:31.520Z,7.82
2022-12-04T12:50:16.418Z,7.05
2022-12-04T12:51:50.209Z,7.65
2022-12-04T12:53:06.644Z,7.53
2022-12-04T12:54:19.495Z,7.18
2022-12-04T12:55:40.408Z,7.70
2022-12-04T12:56:49.860Z,8.63
2022-12-04T12:59:01.929Z,8.10
2022-12-04T13:01:18.670Z,7.80
2022-12-04T13:03:13.248Z,8.65
2022-12-04T13:04:44.957Z,7.70
2022-12-04T13:05:55.137Z,8.15
2022-12-04T13:07:24.102Z,8.07
2022-12-04T13:08:34.696Z,8.60
2022-12-04T13:09:43.010Z,8.90
2022-12-04T13:11:11.925Z,8.75
2022-12-04T13:12:16.956Z,8.15
2022-12-04T13:13:29.533Z,8.45
2022-12-04T13:14:43.540Z,7.78
2022-12-04T13:15:55.941Z,7.30
2022-12-04T13:17:04.765Z,7.53
2022-12-04T13:18:13.719Z,8.02
2022-12-04T13:19:26.060Z,7.63
2022-12-04T13:20:38.194Z,8.07
2022-12-04T13:21:59.893Z,8.05
2022-12-04T13:23:30.799Z,8.98
2022-12-04T13:24:39.052Z,7.30
2022-12-04T13:25:53.423Z,7.10
2022-12-04T13:27:10.485Z,7.53
2022-12-04T13:28:16.151Z,7.95
2022-12-04T13:29:47.176Z,8.00
2022-12-04T13:31:12.188Z,7.47
2022-12-04T13:32:37.882Z,9.25
2022-12-04T13:33:58.012Z,8.30
2022-12-04T13:35:28.014Z,7.22
2022-12-04T13:36:36.162Z,9.15
2022-12-04T13:37:54.274Z,7.88
2022-12-04T13:39:35.283Z,9.05
2022-12-04T13:40:41.110Z,8.10
2022-12-04T13:41:45.054Z,7.60
2022-12-04T13:42:58.867Z,8.00
2022-12-04T13:44:06.950Z,8.32
2022-12-04T13:45:27.979Z,7.95
2022-12-04T13:46:35.904Z,8.43
2022-12-04T13:47:38.909Z,8.32
2022-12-04T13:48:44.121Z,8.25
2022-12-04T13:49:47.727Z,9.23
2022-12-04T13:51:22.158Z,7.60
2022-12-04T13:52:41.207Z,7.63
2022-12-04T13:53:47.724Z,8.63
2022-12-04T13:55:00.077Z,7.13
2022-12-04T13:56:23.521Z,9.07
2022-12-04T13:57:28.714Z,8.07
2022-12-04T13:58:33.735Z,7.55
2022-12-04T13:59:39.078Z,9.02
2022-12-04T14:00:44.091Z,8.05
2022-12-04T14:01:52.617Z,8.10
2022-12-04T14:03:00.850Z,8.30
2022-12-04T14:04:05.665Z,7.97
2022-12-04T14:05:14.749Z,8.43
2022-12-04T14:06:25.051Z,8.02
2022-12-04T14:07:41.640Z,7.38
2022-12-04T14:08:45.216Z,7.90
2022-12-04T14:09:56.024Z,7.38
2022-12-04T14:11:18.325Z,6.97
2022-12-04T14:12:32.609Z,7.57
2022-12-04T14:14:01.084Z,7.35
2022-12-04T14:15:30.450Z,6.95
2022-12-04T14:16:47.485Z,7.60
2022-12-04T14:18:17.101Z,8.65
2022-12-04T14:19:32.607Z,7.55
2022-12-04T14:20:44.957Z,7.20
2022-12-04T14:21:50.504Z,7.53
2022-12-04T14:22:52.865Z,8.25
2022-12-04T14:23:55.285Z,9.02
2022-12-04T14:25:12.741Z,7.90
2022-12-04T14:26:29.246Z,7.67
2022-12-04T14:27:42.460Z,8.18
2022-12-04T14:28:45.469Z,7.80
2022-12-04T14:29:55.106Z,7.93
2022-12-04T14:31:09.113Z,11.23
2022-12-04T14:32:31.117Z,10.35
2022-12-04T14:33:38.442Z,9.23
2022-12-04T14:34:41.253Z,9.18
2022-12-04T14:36:05.730Z,9.75
2022-12-04T14:37:24.383Z,9.07
2022-12-04T14:38:26.655Z,8.77
2022-12-04T14:39:49.795Z,7.88
2022-12-04T14:40:58.354Z,10.02
2022-12-04T14:42:28.989Z,8.23
2022-12-04T14:43:55.442Z,9.13
2022-12-04T14:45:16.950Z,7.95
2022-12-04T14:46:47.959Z,16.33
2022-12-04T14:47:50.618Z,9.07
2022-12-04T14:49:31.045Z,7.93
2022-12-04T14:50:53.526Z,8.18
2022-12-04T14:52:14.154Z,8.93
2022-12-04T14:53:26.341Z,9.30
2022-12-04T15:02:36.404Z,7.05
2022-12-04T15:03:50.056Z,8.63
2022-12-04T15:04:59.315Z,8.52
2022-12-04T15:06:26.490Z,8.90
2022-12-04T15:25:58.821Z,9.07
2022-12-04T15:35:29.810Z,9.15
2022-12-04T15:36:49.958Z,10.30
2022-12-04T15:37:55.784Z,9.65
2022-12-04T15:39:07.593Z,9.98
2022-12-04T15:40:25.174Z,10.35
2022-12-04T15:41:36.157Z,8.65
2022-12-04T15:42:45.477Z,14.20
2022-12-04T15:43:50.074Z,12.32
2022-12-04T15:45:03.531Z,11.07
2022-12-04T15:46:43.696Z,10.32
2022-12-04T15:47:46.279Z,9.05
2022-12-04T15:48:51.990Z,11.35
2022-12-04T15:50:01.252Z,9.13
2022-12-04T15:51:08.297Z,8.48
2022-12-04T15:52:17.710Z,14.18
2022-12-04T15:53:28.839Z,9.75
2022-12-04T15:54:36.857Z,10.57
2022-12-04T15:55:47.493Z,9.98
2022-12-04T15:57:24.320Z,11.15
2022-12-04T15:58:36.356Z,9.70
2022-12-04T15:59:38.425Z,9.43
2022-12-04T16:00:43.107Z,10.63
2022-12-04T16:01:45.583Z,10.32
2022-12-04T16:02:48.941Z,11.13
2022-12-04T16:03:54.406Z,9.50
2022-12-04T16:04:56.722Z,9.27
2022-12-04T16:06:27.895Z,9.23
2022-12-04T16:07:34.656Z,9.10
2022-12-04T16:08:47.986Z,9.00
2022-12-04T16:09:59.537Z,10.00
2022-12-04T16:11:25.936Z,9.43
2022-12-04T16:12:31.263Z,9.60
2022-12-04T16:14:43.932Z,9.63
2022-12-04T16:15:48.036Z,8.73
2022-12-04T16:17:06.163Z,9.65
2022-12-04T16:18:19.966Z,9.77
2022-12-04T16:19:37.950Z,9.77
2022-12-04T16:20:49.985Z,9.07
2022-12-04T16:22:24.410Z,8.73
2022-12-04T16:23:32.098Z,9.10
2022-12-04T16:24:34.513Z,10.35
2022-12-04T16:25:38.517Z,9.73
2022-12-04T16:26:42.522Z,8.82
2022-12-04T16:27:45.069Z,10.82
2022-12-04T16:28:49.585Z,11.48
2022-12-04T16:29:54.315Z,9.27
2022-12-04T16:30:56.755Z,10.57
2022-12-04T16:32:03.039Z,10.65
2022-12-04T16:33:06.234Z,10.93
2022-12-04T16:34:12.434Z,11.05
2022-12-04T16:35:17.205Z,10.13
2022-12-04T16:36:23.984Z,10.80
2022-12-04T16:37:34.130Z,10.85
2022-12-04T16:38:36.895Z,11.50
2022-12-04T16:39:41.818Z,11.45
2022-12-04T16:40:51.614Z,20.33
2022-12-04T16:41:57.527Z,9.73
2022-12-04T16:43:07.160Z,10.20
2022-12-04T16:44:15.355Z,11.10
2022-12-04T16:45:41.559Z,10.23
2022-12-04T16:46:52.208Z,17.73
2022-12-04T16:47:54.486Z,11.48
2022-12-04T16:48:57.281Z,10.35
2022-12-04T16:50:01.008Z,10.52
2022-12-04T16:51:20.501Z,11.30
2022-12-04T16:52:25.543Z,13.43
2022-12-04T16:53:29.540Z,11.88
2022-12-04T16:54:51.679Z,10.57
2022-12-04T16:55:57.301Z,11.82
2022-12-04T16:57:11.838Z,9.88
2022-12-04T16:58:16.439Z,9.30
2022-12-04T16:59:28.674Z,10.05
2022-12-04T17:00:38.921Z,10.68
2022-12-04T17:01:47.321Z,10.10
2022-12-04T17:02:52.471Z,10.80
2022-12-04T17:03:54.640Z,13.02
2022-12-04T17:04:58.109Z,11.75
2022-12-04T17:06:01.142Z,13.80
2022-12-04T17:07:03.397Z,11.30
2022-12-04T17:08:05.798Z,10.95
2022-12-04T17:09:08.777Z,15.20
2022-12-04T17:10:13.410Z,14.65
2022-12-04T17:11:19.440Z,13.02
2022-12-04T17:12:23.831Z,12.15
2022-12-04T17:13:30.037Z,12.73
2022-12-04T17:14:33.065Z,11.05
2022-12-04T17:15:35.533Z,11.52
2022-12-04T17:16:45.145Z,13.60
2022-12-04T17:17:52.180Z,12.25
2022-12-04T17:18:55.491Z,18.63
2022-12-04T17:19:59.861Z,11.68
2022-12-04T17:21:12.517Z,12.25
2022-12-04T17:22:16.645Z,11.68
2022-12-04T17:23:21.330Z,10.45
2022-12-04T17:24:28.239Z,11.25
2022-12-04T17:25:33.745Z,11.35
2022-12-04T17:26:40.742Z,11.13
2022-12-04T17:27:44.575Z,10.50
2022-12-04T17:29:03.296Z,9.98
2022-12-04T17:30:22.519Z,9.65
2022-12-04T17:31:28.676Z,10.38
2022-12-04T17:32:31.838Z,9.55
2022-12-04T17:33:37.119Z,9.70
2022-12-04T17:34:43.314Z,10.95
2022-12-04T17:35:58.983Z,9.77
2022-12-04T17:37:22.354Z,10.00
2022-12-04T17:39:11.815Z,9.82
2022-12-04T17:40:15.112Z,9.55
2022-12-04T17:41:23.716Z,9.55
2022-12-04T17:42:40.177Z,11.63
2022-12-04T17:44:10.641Z,9.73
2022-12-04T17:47:09.306Z,9.98
2022-12-04T17:48:23.704Z,10.15
2022-12-04T17:49:29.181Z,9.02
2022-12-04T17:50:43.404Z,10.13
2022-12-04T17:51:52.663Z,9.63
2022-12-04T17:53:04.551Z,11.15
2022-12-04T17:54:12.276Z,9.88
2022-12-04T17:55:21.773Z,10.07
2022-12-04T17:56:48.837Z,9.57
2022-12-04T17:58:01.441Z,9.13
2022-12-04T17:59:08.377Z,9.52
2022-12-04T18:00:26.429Z,9.50
2022-12-04T18:01:31.866Z,9.93
2022-12-04T18:02:34.900Z,9.35
2022-12-04T18:03:41.682Z,11.50
2022-12-04T18:04:47.205Z,9.77
2022-12-04T18:05:52.050Z,10.75
2022-12-04T18:06:56.775Z,10.02
2022-12-04T18:07:59.345Z,9.85
2022-12-04T18:09:02.748Z,10.43
2022-12-04T18:10:09.183Z,10.30
2022-12-04T18:11:22.169Z,9.80
2022-12-04T18:12:39.819Z,10.23
2022-12-04T18:13:47.107Z,10.35
2022-12-04T18:15:05.815Z,10.30
2022-12-04T18:16:14.547Z,10.25
2022-12-04T18:17:36.908Z,10.82
2022-12-04T18:18:50.574Z,10.00
2022-12-04T18:20:02.659Z,10.32
2022-12-04T18:21:18.283Z,10.93
2022-12-04T18:22:31.919Z,10.43
2022-12-04T18:23:37.243Z,9.88
2022-12-04T18:24:52.327Z,9.98
2022-12-04T18:26:03.058Z,11.85
2022-12-04T18:27:14.619Z,10.25
2022-12-04T18:28:18.113Z,10.13
2022-12-04T18:29:28.416Z,9.77
2022-12-04T18:30:37.361Z,9.55
2022-12-04T18:32:06.178Z,10.20
2022-12-04T18:33:25.429Z,14.20
2022-12-04T18:34:52.431Z,11.40
2022-12-04T18:36:23.286Z,9.80
2022-12-04T18:37:32.279Z,10.25
2022-12-04T18:38:40.902Z,10.77
2022-12-04T18:40:05.982Z,10.48
2022-12-04T18:41:19.074Z,10.27
2022-12-04T18:42:28.751Z,10.43
2022-12-04T18:43:42.821Z,11.23
2022-12-04T18:44:52.679Z,10.48
2022-12-04T18:47:21.646Z,9.73
2022-12-04T18:48:34.206Z,9.98
2022-12-04T18:49:41.130Z,10.38
2022-12-04T18:50:44.366Z,10.02
2022-12-04T18:51:56.069Z,10.90
2022-12-04T18:53:01.669Z,11.18
2022-12-04T18:54:12.281Z,13.90
2022-12-04T18:55:20.507Z,11.07
2022-12-04T18:56:31.115Z,14.18
2022-12-04T18:57:45.965Z,9.95
2022-12-04T18:59:02.420Z,10.80
2022-12-04T19:00:11.862Z,10.13
2022-12-04T19:01:29.617Z,10.98
2022-12-04T19:02:42.437Z,11.13
2022-12-04T19:03:55.724Z,10.40
2022-12-04T19:05:01.662Z,9.73
2022-12-04T19:06:18.614Z,9.57
2022-12-04T19:08:43.401Z,11.57
2022-12-04T19:11:18.084Z,10.85
2022-12-04T19:12:31.150Z,11.88
2022-12-04T19:13:37.728Z,12.52
2022-12-04T19:14:44.071Z,12.00
2022-12-04T19:15:53.445Z,11.52
